Time;durP1;ratioP1;P1;durP2;ratioP2;P2;SDS_P1;SDS_P2;PMS_P1;PMS_P2;Temp;Humidity;BMP_temperature;BMP_pressure;BME280_temperature;BME280_humidity;BME280_pressure;Samples;Min_cycle;Max_cycle;Signal;HPM_P1;HPM_P2
2022/02/03 00:02:05;;;;;;;1.80;0.98;;;;;;;2.77;77.95;99734.53;5096536;28;20052;-65
2022/02/03 00:04:54;;;;;;;1.42;0.95;;;;;;;2.59;78.02;99740.69;4607980;22;20059;-66
2022/02/03 00:07:31;;;;;;;1.00;0.80;;;;;;;2.53;78.33;99745.56;5116749;28;20131;-67
2022/02/03 00:26:34;;;;;;;1.65;0.82;;;;;;;2.60;77.88;99752.50;5106173;28;20046;-67
2022/02/03 00:29:15;;;;;;;4.22;0.90;;;;;;;2.74;77.63;99757.97;5116382;28;20071;-67
2022/02/03 00:31:59;;;;;;;1.38;0.90;;;;;;;2.79;77.99;99766.53;5116362;28;20047;-67
2022/02/03 00:34:39;;;;;;;2.25;1.15;;;;;;;2.84;77.52;99776.75;5116252;28;20035;-68
2022/02/03 00:37:17;;;;;;;2.00;1.17;;;;;;;2.82;76.79;99785.94;5116263;28;20092;-67
2022/02/03 00:50:30;;;;;;;1.88;1.23;;;;;;;2.43;76.72;99801.47;5116243;28;20120;-67
2022/02/03 00:53:02;;;;;;;1.48;1.00;;;;;;;2.43;77.12;99804.00;5115946;28;20044;-66
2022/02/03 00:55:37;;;;;;;1.90;1.05;;;;;;;2.45;76.49;99806.53;5116157;28;20492;-67
2022/02/03 00:58:08;;;;;;;2.55;1.20;;;;;;;2.46;77.08;99811.66;5115909;28;20054;-67
2022/02/03 01:00:39;;;;;;;2.63;1.10;;;;;;;2.45;75.92;99816.63;5116086;28;20116;-68
2022/02/03 01:03:12;;;;;;;2.08;1.10;;;;;;;2.43;76.39;99819.09;5115725;28;20489;-68
2022/02/03 01:05:45;;;;;;;1.67;1.02;;;;;;;2.38;76.60;99815.56;5115499;28;20392;-67
2022/02/03 01:08:19;;;;;;;2.80;1.13;;;;;;;2.37;76.11;99818.91;5115826;28;20054;-67
2022/02/03 01:10:56;;;;;;;2.67;1.20;;;;;;;2.32;76.82;99819.56;5115586;28;20047;-67
2022/02/03 01:13:37;;;;;;;1.50;0.95;;;;;;;2.09;76.92;99808.69;5115513;28;20056;-67
2022/02/03 01:16:15;;;;;;;1.33;1.02;;;;;;;2.01;76.77;99802.53;5115423;28;20068;-68
2022/02/03 01:19:10;;;;;;;2.22;1.10;;;;;;;2.04;77.13;99815.22;5115419;28;20040;-67
2022/02/03 01:33:26;;;;;;;4.10;1.10;;;;;;;1.95;76.78;99817.41;5115669;28;20047;-67
2022/02/03 01:36:53;;;;;;;2.20;1.10;;;;;;;1.84;76.67;99803.59;5115029;28;20039;-68
2022/02/03 01:43:33;;;;;;;4.72;1.83;;;;;;;1.74;76.86;99812.47;5114954;28;20130;-68
2022/02/03 01:46:12;;;;;;;6.25;1.77;;;;;;;1.69;77.23;99798.88;5115097;28;20070;-68
2022/02/03 01:49:03;;;;;;;2.35;1.30;;;;;;;1.66;77.09;99802.94;5114780;28;20039;-67
2022/02/03 01:51:42;;;;;;;1.98;1.20;;;;;;;1.57;76.77;99800.94;5114770;28;20052;-68
2022/02/03 01:54:15;;;;;;;2.58;1.20;;;;;;;1.59;76.63;99823.63;5114762;28;20047;-68
2022/02/03 01:56:52;;;;;;;4.20;1.40;;;;;;;1.41;76.84;99797.81;5114667;28;20100;-67
2022/02/03 01:59:23;;;;;;;2.58;1.08;;;;;;;1.38;77.37;99815.28;5114686;28;20046;-67
2022/02/03 02:02:01;;;;;;;3.47;1.10;;;;;;;1.26;76.94;99811.53;5114588;28;20108;-68
2022/02/03 02:04:53;;;;;;;1.88;1.30;;;;;;;1.33;76.76;99823.53;5114684;28;20046;-69
2022/02/03 02:07:31;;;;;;;2.13;1.20;;;;;;;1.29;76.90;99826.72;5114689;28;20447;-67
2022/02/03 02:10:26;;;;;;;2.67;1.10;;;;;;;1.30;77.48;99835.97;5114765;28;20050;-67
2022/02/03 02:13:28;;;;;;;2.88;1.25;;;;;;;1.33;77.05;99837.75;5114449;28;20054;-68
2022/02/03 02:16:13;;;;;;;3.53;1.10;;;;;;;1.35;77.16;99846.19;5114648;28;20044;-68
2022/02/03 02:19:02;;;;;;;3.05;1.52;;;;;;;1.31;77.74;99840.22;5114333;28;20043;-68
2022/02/03 02:37:52;;;;;;;2.13;1.15;;;;;;;1.38;77.28;99885.69;5114046;28;20051;-68
2022/02/03 02:43:11;;;;;;;2.78;1.38;;;;;;;1.61;77.34;99884.94;5114409;28;20052;-67
2022/02/03 02:45:49;;;;;;;3.38;1.60;;;;;;;1.52;76.91;99872.84;5114053;28;20085;-68
2022/02/03 02:48:47;;;;;;;3.22;1.60;;;;;;;1.69;76.95;99889.44;5114192;28;20074;-67
2022/02/03 02:51:26;;;;;;;2.65;1.38;;;;;;;1.72;77.54;99898.75;5114238;28;20454;-68
2022/02/03 02:56:59;;;;;;;3.05;1.80;;;;;;;1.82;77.59;99898.31;5113842;28;20485;-67
2022/02/03 03:00:13;;;;;;;3.58;1.83;;;;;;;1.90;77.58;99899.41;5113847;28;20504;-69
2022/02/03 03:03:16;;;;;;;2.65;1.35;;;;;;;1.90;77.80;99889.34;5113818;28;20047;-68
2022/02/03 03:30:10;;;;;;;3.13;1.83;;;;;;;1.74;78.07;99912.25;5113918;28;20048;-68
2022/02/03 03:33:05;;;;;;;4.75;1.92;;;;;;;1.78;78.32;99914.06;5113964;28;20067;-68
2022/02/03 03:35:41;;;;;;;5.50;2.15;;;;;;;1.79;77.97;99916.66;5113517;28;20075;-68
2022/02/03 03:38:11;;;;;;;3.00;2.08;;;;;;;1.78;78.33;99914.06;5113518;28;20043;-68
2022/02/03 03:40:42;;;;;;;3.65;1.88;;;;;;;1.85;78.23;99923.56;5113453;28;20047;-68
2022/02/03 03:43:14;;;;;;;3.28;2.15;;;;;;;1.88;78.51;99936.25;5113489;28;20043;-68
2022/02/03 03:45:48;;;;;;;3.67;2.00;;;;;;;1.91;78.02;99936.38;5113489;28;20059;-67
2022/02/03 03:48:20;;;;;;;4.30;1.83;;;;;;;1.78;78.53;99927.50;5113361;28;20488;-67
2022/02/03 03:50:51;;;;;;;2.63;1.45;;;;;;;1.86;78.03;99942.88;5115415;28;20442;-68
2022/02/03 03:53:29;;;;;;;3.90;1.90;;;;;;;1.91;78.06;99956.50;5117484;28;20071;-68
2022/02/03 03:56:05;;;;;;;3.15;1.55;;;;;;;1.92;78.71;99955.72;5117662;28;20043;-68
2022/02/03 03:59:01;;;;;;;3.47;1.58;;;;;;;1.93;78.92;99964.97;5117322;28;20709;-69
2022/02/03 04:58:35;;;;;;;4.00;2.03;;;;;;;2.09;78.21;100027.66;5115641;28;20519;-68
2022/02/03 05:01:28;;;;;;;4.55;2.00;;;;;;;2.06;79.15;100022.53;5115533;27;20435;-68
2022/02/03 05:04:30;;;;;;;5.45;2.10;;;;;;;2.14;78.83;100036.25;5116122;28;20116;-68
2022/02/03 05:07:23;;;;;;;4.00;2.20;;;;;;;2.23;78.65;100026.53;5115629;28;20046;-68
2022/02/03 05:10:13;;;;;;;4.05;2.00;;;;;;;2.30;78.65;100028.50;5115627;28;20052;-68
2022/02/03 05:13:07;;;;;;;5.78;1.90;;;;;;;2.37;78.55;100035.47;5115531;28;20063;-68
2022/02/03 05:16:15;;;;;;;4.22;2.13;;;;;;;2.39;78.38;100028.84;5115497;28;20071;-68
2022/02/03 05:22:34;;;;;;;4.50;2.30;;;;;;;2.28;77.73;100036.78;5115474;28;20465;-68
2022/02/03 05:42:52;;;;;;;5.45;1.90;;;;;;;2.01;78.91;100070.19;5114915;28;20522;-70
2022/02/03 05:45:36;;;;;;;4.22;2.08;;;;;;;2.14;78.49;100075.66;5114756;28;20035;-68
2022/02/03 05:51:10;;;;;;;6.03;1.95;;;;;;;2.28;79.08;100070.34;5115131;28;20138;-68
2022/02/03 06:02:07;;;;;;;6.82;2.22;;;;;;;2.46;77.89;100071.06;5114979;28;20043;-68
2022/02/03 06:04:52;;;;;;;6.13;2.38;;;;;;;2.46;77.73;100061.00;5114664;28;20054;-68
2022/02/03 06:15:34;;;;;;;5.45;2.25;;;;;;;2.37;78.34;100090.88;5111612;28;20138;-68
2022/02/03 06:23:50;;;;;;;9.65;3.15;;;;;;;2.34;77.92;100108.38;5096999;28;20078;-68
2022/02/03 06:29:00;;;;;;;7.80;3.70;;;;;;;2.44;77.76;100112.97;5114463;28;20448;-68
2022/02/03 06:31:29;;;;;;;6.80;2.50;;;;;;;2.47;77.58;100113.06;5114125;28;20044;-67
2022/02/03 06:33:59;;;;;;;9.57;3.53;;;;;;;2.53;77.55;100118.34;5114605;28;20043;-68
2022/02/03 06:36:29;;;;;;;6.97;3.35;;;;;;;2.48;77.39;100119.84;5114389;28;20065;-68
2022/02/03 06:38:57;;;;;;;9.32;4.22;;;;;;;2.27;76.92;100128.22;5114008;28;20044;-67
2022/02/03 06:41:26;;;;;;;33.83;11.88;;;;;;;2.14;77.88;100126.88;5113969;28;20071;-67
2022/02/03 06:43:56;;;;;;;16.00;7.63;;;;;;;2.13;78.48;100134.38;5114343;28;20588;-67
2022/02/03 06:46:26;;;;;;;9.95;5.57;;;;;;;2.22;77.74;100140.63;5113872;28;20036;-68
2022/02/03 06:49:07;;;;;;;8.75;4.65;;;;;;;2.23;77.89;100134.78;5113943;28;20039;-67
2022/02/03 06:51:44;;;;;;;11.45;5.82;;;;;;;2.27;77.83;100139.16;5113929;28;20047;-67
2022/02/03 06:54:19;;;;;;;7.90;4.80;;;;;;;2.36;78.03;100131.97;5113909;28;20047;-67
2022/02/03 06:56:54;;;;;;;10.40;5.80;;;;;;;2.41;78.30;100138.03;5114135;28;20545;-68
2022/02/03 06:59:30;;;;;;;10.35;4.70;;;;;;;2.44;78.33;100144.84;5114135;28;20542;-67
2022/02/03 07:01:59;;;;;;;10.07;4.80;;;;;;;2.40;77.72;100133.78;5114047;28;20074;-67
2022/02/03 07:04:37;;;;;;;9.35;4.15;;;;;;;2.39;78.31;100139.66;5113492;28;20047;-69
2022/02/03 07:07:08;;;;;;;13.27;4.43;;;;;;;2.36;78.20;100134.47;5113843;28;20047;-66
2022/02/03 07:09:37;;;;;;;12.00;5.13;;;;;;;2.39;78.00;100144.69;5113759;28;20093;-66
2022/02/03 07:12:07;;;;;;;10.30;4.55;;;;;;;2.40;78.98;100151.41;5113652;28;20122;-66
2022/02/03 07:14:36;;;;;;;13.38;5.15;;;;;;;2.41;78.71;100153.16;5113670;28;20039;-66
2022/02/03 07:17:10;;;;;;;7.55;3.83;;;;;;;2.42;79.30;100159.91;5114249;28;20454;-66
2022/02/03 07:19:45;;;;;;;9.77;3.92;;;;;;;2.40;78.76;100156.44;5113612;28;20043;-66
2022/02/03 07:22:16;;;;;;;8.43;3.67;;;;;;;2.36;78.42;100149.59;5113637;28;20097;-66
2022/02/03 07:24:51;;;;;;;6.82;2.92;;;;;;;2.38;79.23;100153.03;5114220;28;20044;-65
2022/02/03 07:27:22;;;;;;;7.47;3.38;;;;;;;2.39;78.47;100162.31;5118038;28;20476;-66
2022/02/03 07:29:52;;;;;;;6.32;3.13;;;;;;;2.41;79.28;100168.25;5117434;28;20066;-65
2022/02/03 07:32:22;;;;;;;10.30;4.35;;;;;;;2.49;79.48;100171.94;5117541;28;20043;-65
2022/02/03 07:34:54;;;;;;;7.32;4.00;;;;;;;2.56;79.10;100168.88;5116075;28;20044;-65
2022/02/03 07:37:26;;;;;;;9.40;4.07;;;;;;;2.54;78.86;100167.09;5117465;28;20135;-65
2022/02/03 07:39:55;;;;;;;8.63;4.72;;;;;;;2.49;79.25;100164.38;5117358;28;20040;-66
2022/02/03 07:42:29;;;;;;;7.43;3.65;;;;;;;2.58;79.68;100167.25;5117518;28;20040;-65
2022/02/03 07:44:58;;;;;;;6.22;3.50;;;;;;;2.68;80.00;100171.84;5117440;28;20038;-66
2022/02/03 07:47:27;;;;;;;5.10;2.92;;;;;;;2.73;79.31;100170.34;5117248;28;20040;-66
2022/02/03 07:49:56;;;;;;;9.47;3.07;;;;;;;2.75;80.03;100172.06;5117343;28;20036;-65
2022/02/03 07:52:29;;;;;;;10.50;3.33;;;;;;;2.76;80.16;100161.22;5114015;28;20438;-66
2022/02/03 07:54:58;;;;;;;7.68;3.25;;;;;;;2.75;79.30;100165.38;5117709;28;20096;-66
2022/02/03 07:57:27;;;;;;;8.27;3.20;;;;;;;2.77;79.33;100168.81;5117072;28;20503;-66
2022/02/03 07:59:56;;;;;;;10.23;3.97;;;;;;;2.90;79.54;100170.13;5116926;28;20043;-66
2022/02/03 08:02:25;;;;;;;12.97;3.57;;;;;;;3.12;78.74;100168.44;5116870;28;20503;-66
2022/02/03 08:04:54;;;;;;;6.55;2.80;;;;;;;3.33;78.60;100169.25;5116616;28;20048;-66
2022/02/03 08:07:25;;;;;;;6.78;2.95;;;;;;;3.64;77.83;100166.13;5116919;28;20374;-66
2022/02/03 08:09:59;;;;;;;6.28;3.05;;;;;;;4.06;77.45;100176.78;5116949;28;20035;-66
2022/02/03 08:12:32;;;;;;;6.60;2.80;;;;;;;4.26;77.04;100174.91;5116734;28;20130;-66
2022/02/03 08:15:02;;;;;;;5.22;2.63;;;;;;;4.08;76.20;100170.97;5116993;28;20519;-65
2022/02/03 08:17:37;;;;;;;6.43;2.50;;;;;;;4.07;76.67;100179.38;5116598;28;20047;-65
2022/02/03 08:20:13;;;;;;;8.07;2.40;;;;;;;4.31;75.98;100183.50;5116618;28;20075;-66
2022/02/03 08:22:46;;;;;;;5.50;2.13;;;;;;;4.50;76.20;100181.63;5116568;28;20043;-66
2022/02/03 08:25:18;;;;;;;5.72;2.30;;;;;;;4.51;75.75;100185.84;5116468;28;20509;-66
2022/02/03 08:30:29;;;;;;;4.97;2.10;;;;;;;4.85;75.12;100180.16;5116303;28;20039;-65
2022/02/03 08:33:00;;;;;;;5.78;2.05;;;;;;;4.92;75.06;100177.00;5096951;28;20050;-65
2022/02/03 08:35:39;;;;;;;3.35;1.83;;;;;;;4.94;73.79;100182.09;5109191;28;20039;-66
2022/02/03 08:38:18;;;;;;;5.32;1.77;;;;;;;5.13;73.59;100180.16;5101255;28;20451;-66
2022/02/03 08:41:01;;;;;;;3.55;1.90;;;;;;;5.23;73.25;100179.59;5110959;28;20425;-65
2022/02/03 08:43:32;;;;;;;4.97;1.80;;;;;;;5.43;72.52;100186.09;5116409;28;20116;-68
2022/02/03 08:46:02;;;;;;;3.55;1.75;;;;;;;5.58;71.87;100187.31;5116051;28;20055;-67
2022/02/03 08:48:32;;;;;;;5.45;1.90;;;;;;;5.81;70.97;100196.38;5116332;28;20050;-67
2022/02/03 08:51:01;;;;;;;;;;;;;;;5.86;70.53;100189.78;5116284;28;20058;-67
2022/02/03 08:53:34;;;;;;;4.27;2.10;;;;;;;5.92;69.84;100190.81;5116306;28;19980;-68
2022/02/03 08:56:22;;;;;;;2.75;1.55;;;;;;;5.76;68.93;100203.00;5115865;28;20050;-67
2022/02/03 09:39:07;;;;;;;5.43;2.55;;;;;;;4.84;69.37;100216.38;5111050;28;20048;-67
2022/02/03 09:42:06;;;;;;;6.85;3.28;;;;;;;5.25;69.00;100221.00;5111051;28;20036;-66
2022/02/03 09:55:45;;;;;;;6.97;2.70;;;;;;;6.39;66.09;100206.34;5100202;28;20077;-67
2022/02/03 09:58:17;;;;;;;4.45;2.10;;;;;;;6.42;65.58;100208.97;5130465;27;20040;-68
2022/02/03 10:01:04;;;;;;;5.00;1.70;;;;;;;5.95;64.21;100212.84;5130580;27;20527;-67
2022/02/03 10:03:38;;;;;;;4.68;1.77;;;;;;;5.90;63.49;100201.72;5130720;27;20562;-67
2022/02/03 10:06:15;;;;;;;2.53;1.45;;;;;;;5.85;62.85;100213.41;5124974;27;20507;-68
2022/02/03 10:08:49;;;;;;;5.32;1.60;;;;;;;5.56;62.73;100209.19;5122068;28;20059;-67
2022/02/03 10:11:19;;;;;;;4.40;1.42;;;;;;;5.95;62.08;100215.38;5126317;28;20039;-68
2022/02/03 10:13:49;;;;;;;2.78;1.63;;;;;;;6.19;61.06;100210.91;5114053;28;20047;-67
2022/02/03 10:16:20;;;;;;;4.10;1.67;;;;;;;6.51;60.57;100215.09;5116321;28;20048;-67
2022/02/03 10:18:50;;;;;;;4.00;1.75;;;;;;;6.55;59.81;100206.75;5096773;28;20485;-68
2022/02/03 10:21:23;;;;;;;4.68;1.60;;;;;;;6.92;58.98;100215.19;5096410;28;20485;-68
2022/02/03 10:23:55;;;;;;;2.88;1.52;;;;;;;6.62;58.22;100223.81;5096310;28;20079;-68
2022/02/03 10:26:31;;;;;;;4.32;1.75;;;;;;;6.36;58.63;100219.78;5109961;28;20038;-67
2022/02/03 10:29:01;;;;;;;4.53;1.85;;;;;;;6.79;58.61;100230.97;5116581;28;20112;-66
2022/02/03 10:31:40;;;;;;;3.65;1.92;;;;;;;7.35;58.93;100225.44;5114357;28;20401;-67
2022/02/03 10:34:16;;;;;;;5.13;1.75;;;;;;;7.72;58.37;100217.75;5111338;28;20051;-67
2022/02/03 10:36:55;;;;;;;4.93;2.53;;;;;;;8.03;57.57;100225.13;5096047;28;20048;-67
2022/02/03 10:40:00;;;;;;;2.70;1.33;;;;;;;7.79;55.02;100218.72;5107883;28;20093;-66
2022/02/03 10:45:24;;;;;;;5.28;2.08;;;;;;;7.03;55.83;100223.94;5116587;28;20043;-67
2022/02/03 10:53:46;;;;;;;4.35;1.50;;;;;;;7.74;54.74;100211.00;5097495;28;20040;-66
2022/02/03 10:56:29;;;;;;;4.60;2.00;;;;;;;7.97;54.84;100209.75;5109551;28;20043;-67
2022/02/03 10:59:43;;;;;;;6.00;1.50;;;;;;;8.23;54.73;100206.81;5103569;28;20131;-67
2022/02/03 11:02:32;;;;;;;4.15;1.60;;;;;;;8.26;54.34;100201.75;5098341;28;20068;-68
2022/02/03 11:05:16;;;;;;;13.07;2.40;;;;;;;8.18;53.71;100204.19;5095813;28;20066;-67
2022/02/03 11:07:51;;;;;;;4.63;1.65;;;;;;;8.12;53.57;100206.63;5095776;28;20519;-70
2022/02/03 11:10:31;;;;;;;4.20;1.90;;;;;;;8.28;53.04;100200.16;5108606;28;20051;-68
2022/02/03 11:13:01;;;;;;;4.55;1.80;;;;;;;8.36;52.23;100203.66;5115286;28;20051;-67
2022/02/03 11:15:32;;;;;;;2.33;1.40;;;;;;;8.48;52.29;100199.66;5113309;28;20082;-67
2022/02/03 11:18:05;;;;;;;2.70;1.48;;;;;;;8.56;52.07;100197.22;5114341;28;20381;-67
2022/02/03 11:20:38;;;;;;;5.40;1.90;;;;;;;8.79;51.88;100190.78;5114253;28;20043;-66
2022/02/03 11:23:21;;;;;;;5.47;1.88;;;;;;;8.85;51.75;100185.78;5114857;28;20043;-67
2022/02/03 11:26:03;;;;;;;8.13;2.75;;;;;;;8.98;51.17;100182.56;5115546;28;20051;-68
2022/02/03 11:34:35;;;;;;;5.93;2.20;;;;;;;8.62;50.18;100179.50;5104148;28;20089;-67
2022/02/03 11:37:33;;;;;;;10.95;2.72;;;;;;;8.54;50.09;100189.53;5094829;28;20072;-68
2022/02/03 11:45:57;;;;;;;5.35;1.90;;;;;;;9.24;49.89;100181.22;5095103;28;20070;-67
2022/02/03 11:57:34;;;;;;;5.53;1.77;;;;;;;9.16;49.42;100177.72;5110000;28;20081;-67
2022/02/03 12:03:13;;;;;;;4.55;2.30;;;;;;;9.58;49.62;100171.41;5111474;28;20054;-67
2022/02/03 12:14:21;;;;;;;5.13;1.70;;;;;;;9.40;49.01;100167.84;5111017;28;20043;-67
2022/02/03 12:17:11;;;;;;;2.70;1.40;;;;;;;9.59;48.43;100162.94;5106770;28;20040;-67
2022/02/03 12:19:57;;;;;;;3.78;1.42;;;;;;;9.42;48.16;100148.34;5098839;28;20051;-68
2022/02/03 12:22:40;;;;;;;3.50;1.70;;;;;;;9.03;50.16;100137.66;5100276;28;20489;-66
2022/02/03 12:25:24;;;;;;;2.65;1.67;;;;;;;8.98;49.86;100141.84;5094250;28;20552;-67
2022/02/03 12:28:11;;;;;;;4.80;1.85;;;;;;;9.31;50.55;100141.38;5093997;28;20044;-68
2022/02/03 12:38:58;;;;;;;5.55;1.70;;;;;;;9.28;48.69;100132.03;5081719;28;20035;-67
2022/02/03 12:41:36;;;;;;;2.67;1.40;;;;;;;9.15;49.28;100120.00;5108115;28;20036;-66
2022/02/03 12:44:14;;;;;;;4.35;1.65;;;;;;;9.14;48.41;100118.25;5112817;28;20122;-67
2022/02/03 12:46:43;;;;;;;5.47;1.60;;;;;;;9.06;48.76;100119.88;5110108;28;20075;-67
2022/02/03 12:49:15;;;;;;;4.22;1.80;;;;;;;9.25;48.76;100113.31;5109105;28;20052;-67
2022/02/03 12:51:44;;;;;;;3.88;1.98;;;;;;;9.51;48.72;100113.59;5104923;28;20040;-68
2022/02/03 12:54:16;;;;;;;3.80;1.70;;;;;;;9.31;48.30;100110.81;5098942;28;20032;-68
2022/02/03 12:56:47;;;;;;;7.20;1.60;;;;;;;8.63;48.98;100117.59;5093510;28;20070;-66
2022/02/03 12:59:17;;;;;;;4.38;1.40;;;;;;;8.71;49.54;100116.00;5094184;28;20060;-66
2022/02/03 13:01:46;;;;;;;3.78;1.88;;;;;;;8.84;49.94;100117.91;5093801;28;20040;-68
2022/02/03 13:04:19;;;;;;;3.78;1.83;;;;;;;8.90;49.83;100117.13;5093823;28;20063;-68
2022/02/03 13:06:59;;;;;;;5.55;1.83;;;;;;;9.18;49.14;100109.84;5093566;28;20102;-68
2022/02/03 13:09:37;;;;;;;6.90;2.20;;;;;;;9.24;49.41;100104.81;5093801;28;20048;-67
2022/02/03 13:12:18;;;;;;;3.38;1.90;;;;;;;9.02;48.56;100112.19;5093412;28;20055;-67
2022/02/03 13:14:52;;;;;;;3.97;1.90;;;;;;;8.77;49.25;100106.78;5093459;28;20101;-67
2022/02/03 13:17:27;;;;;;;8.63;2.20;;;;;;;8.66;50.00;100102.41;5093365;28;20044;-68
2022/02/03 13:20:15;;;;;;;4.93;1.90;;;;;;;8.56;49.99;100105.63;5092240;28;20386;-67
2022/02/03 13:22:52;;;;;;;4.72;1.75;;;;;;;7.97;50.79;100097.06;5104703;28;20471;-68
2022/02/03 13:25:27;;;;;;;8.15;2.40;;;;;;;7.86;52.05;100104.53;5109078;28;20040;-67
2022/02/03 13:28:02;;;;;;;6.72;2.00;;;;;;;8.01;52.10;100103.91;5093156;28;20397;-68
2022/02/03 13:30:41;;;;;;;8.15;2.22;;;;;;;8.11;52.02;100105.75;5093372;28;20097;-68
2022/02/03 13:33:11;;;;;;;4.75;2.00;;;;;;;8.28;51.41;100094.19;5093538;28;20067;-67
2022/02/03 13:35:50;;;;;;;3.45;1.60;;;;;;;8.48;51.74;100094.50;5093126;28;20567;-67
2022/02/03 13:38:34;;;;;;;5.05;1.98;;;;;;;8.72;50.62;100092.28;5093510;28;20050;-67
2022/02/03 13:41:15;;;;;;;3.25;1.70;;;;;;;8.36;51.01;100096.84;5093329;28;20048;-68
2022/02/03 13:43:46;;;;;;;4.03;1.50;;;;;;;8.11;50.36;100101.53;5093153;28;20069;-66
2022/02/03 13:46:28;;;;;;;7.40;2.25;;;;;;;8.01;51.73;100099.66;5093162;28;20052;-67
2022/02/03 13:48:58;;;;;;;4.22;1.63;;;;;;;7.85;52.44;100090.09;5097385;28;20401;-67
2022/02/03 13:51:29;;;;;;;4.53;1.50;;;;;;;7.93;52.83;100096.16;5097225;28;20401;-67
2022/02/03 13:54:08;;;;;;;5.00;1.65;;;;;;;8.04;52.51;100098.88;5096960;28;20040;-68
2022/02/03 14:16:10;;;;;;;5.63;1.98;;;;;;;7.12;54.07;100062.56;5096781;28;20382;-67
2022/02/03 14:21:21;;;;;;;3.85;1.40;;;;;;;6.91;53.67;100068.88;5096471;28;20069;-67
2022/02/03 14:29:11;;;;;;;3.25;1.27;;;;;;;6.62;54.30;100066.59;5095340;28;20040;-68
2022/02/03 14:31:41;;;;;;;3.95;1.40;;;;;;;6.60;54.64;100068.25;5096151;28;20047;-67
2022/02/03 14:34:14;;;;;;;;;;;;;;;6.62;54.84;100065.75;5096798;28;20465;-67
2022/02/03 14:36:47;;;;;;;2.00;1.13;;;;;;;6.62;55.29;100066.59;5096491;28;19947;-67
2022/02/03 14:39:22;;;;;;;6.20;1.38;;;;;;;6.47;55.25;100066.28;5096049;28;20052;-67
2022/02/03 14:41:51;;;;;;;3.83;1.33;;;;;;;6.48;56.06;100067.97;5096556;28;20143;-67
2022/02/03 14:44:20;;;;;;;6.78;1.70;;;;;;;6.49;55.91;100054.50;5095033;28;20039;-66
2022/02/03 14:46:49;;;;;;;2.17;1.33;;;;;;;6.35;56.99;100058.41;5096074;28;20516;-67
2022/02/03 14:49:18;;;;;;;5.23;1.60;;;;;;;6.16;57.38;100056.28;5095959;28;20048;-68
2022/02/03 14:51:54;;;;;;;4.83;1.53;;;;;;;6.13;57.91;100063.81;5100070;28;20044;-66
2022/02/03 14:59:42;;;;;;;5.20;1.90;;;;;;;6.18;58.42;100052.09;5105352;28;20130;-66
2022/02/03 15:02:11;;;;;;;8.87;1.80;;;;;;;6.16;59.43;100055.41;5116068;28;20039;-67
2022/02/03 15:04:42;;;;;;;4.43;1.37;;;;;;;6.07;59.98;100043.38;5116011;28;20082;-67
2022/02/03 15:07:11;;;;;;;2.60;1.30;;;;;;;6.03;60.27;100041.59;5115827;28;20051;-67
2022/02/03 15:10:03;;;;;;;6.10;1.50;;;;;;;5.92;60.63;100045.59;5115976;28;20036;-67
2022/02/03 15:12:53;;;;;;;4.45;1.52;;;;;;;5.68;61.10;100047.50;5115813;28;20047;-67
2022/02/03 15:15:23;;;;;;;6.10;1.55;;;;;;;5.50;61.92;100041.94;5115868;28;20534;-68
2022/02/03 15:17:52;;;;;;;3.05;1.60;;;;;;;5.38;62.61;100043.38;5115906;28;20108;-67
2022/02/03 15:20:22;;;;;;;5.28;1.60;;;;;;;5.21;62.81;100038.69;5115737;28;20039;-66
2022/02/03 15:22:52;;;;;;;3.67;1.50;;;;;;;4.97;63.83;100038.88;5114529;28;20054;-66
2022/02/03 15:25:22;;;;;;;3.75;1.75;;;;;;;4.81;63.97;100033.38;5115564;28;20051;-67
2022/02/03 15:27:51;;;;;;;6.43;1.42;;;;;;;4.73;64.22;100033.16;5115510;28;20040;-66
2022/02/03 15:30:20;;;;;;;4.70;1.50;;;;;;;4.65;64.80;100039.69;5115462;28;20044;-66
2022/02/03 15:32:50;;;;;;;4.50;1.60;;;;;;;4.55;65.32;100033.50;5115357;28;20282;-67
2022/02/03 15:35:25;;;;;;;6.03;1.80;;;;;;;4.50;65.58;100039.22;5116241;28;20292;-67
2022/02/03 15:37:54;;;;;;;5.25;2.10;;;;;;;4.42;65.54;100041.53;5115205;28;20048;-67
2022/02/03 15:40:27;;;;;;;8.57;4.03;;;;;;;4.31;66.05;100047.94;5115212;28;20070;-67
2022/02/03 15:43:02;;;;;;;4.93;2.63;;;;;;;4.22;66.04;100051.88;5115097;28;20044;-67
2022/02/03 15:45:36;;;;;;;7.85;3.05;;;;;;;4.16;66.10;100052.53;5115107;28;20058;-67
2022/02/03 15:48:14;;;;;;;9.43;4.30;;;;;;;3.96;66.30;100024.13;5115426;28;20067;-67
2022/02/03 16:01:43;;;;;;;5.88;2.42;;;;;;;4.18;67.02;100029.84;5114792;28;20082;-67
2022/02/03 16:17:31;;;;;;;8.68;4.03;;;;;;;3.81;67.57;100023.69;5114869;28;20092;-67
2022/02/03 16:20:06;;;;;;;6.25;3.47;;;;;;;3.89;67.27;100011.28;5114928;28;20040;-66
2022/02/03 16:22:44;;;;;;;10.55;4.53;;;;;;;3.82;67.99;100010.22;5114482;28;20052;-67
2022/02/03 16:25:26;;;;;;;12.00;5.90;;;;;;;3.93;67.19;100008.06;5114481;28;20082;-67
2022/02/03 16:52:33;;;;;;;8.98;3.05;;;;;;;3.52;69.13;100008.41;5114430;28;20458;-67
2022/02/03 16:55:06;;;;;;;8.80;3.83;;;;;;;3.46;68.58;100001.50;5114457;28;20434;-67
2022/02/03 16:57:36;;;;;;;8.85;3.53;;;;;;;3.42;68.59;100002.22;5114622;28;20047;-68
2022/02/03 17:00:11;;;;;;;7.35;4.00;;;;;;;3.35;69.03;99992.72;5113937;28;20497;-67
2022/02/03 17:02:57;;;;;;;9.00;4.07;;;;;;;3.35;68.65;99995.25;5114171;28;20047;-68
2022/02/03 17:05:26;;;;;;;10.70;4.07;;;;;;;3.30;69.45;100001.81;5113900;28;20040;-67
2022/02/03 17:07:55;;;;;;;8.23;4.05;;;;;;;3.16;68.98;100003.88;5113894;28;20051;-67
2022/02/03 17:10:24;;;;;;;6.32;3.03;;;;;;;3.08;69.85;100000.22;5114224;28;20051;-67
2022/02/03 17:12:53;;;;;;;9.93;3.70;;;;;;;3.06;69.10;99990.91;5114222;28;20500;-67
2022/02/03 17:15:25;;;;;;;7.03;2.87;;;;;;;2.95;69.86;99989.69;5114195;28;20032;-67
2022/02/03 17:17:55;;;;;;;6.78;3.72;;;;;;;2.82;70.20;99987.53;5113876;28;20048;-67
2022/02/03 17:20:28;;;;;;;8.63;3.30;;;;;;;2.83;70.54;99984.22;5113791;28;20053;-67
2022/02/03 17:22:58;;;;;;;7.85;3.60;;;;;;;2.65;70.36;99982.75;5116764;28;20074;-67
2022/02/03 17:25:32;;;;;;;6.47;3.60;;;;;;;2.75;70.78;99993.16;5118204;28;20439;-67
2022/02/03 17:28:07;;;;;;;7.78;3.40;;;;;;;2.81;70.94;100003.47;5117985;28;20423;-67
2022/02/03 17:30:44;;;;;;;9.80;3.53;;;;;;;2.71;71.04;99994.75;5118097;27;20055;-67
2022/02/03 18:06:05;;;;;;;7.50;3.50;;;;;;;2.68;72.49;99987.91;5117068;28;20047;-67
2022/02/03 18:11:00;;;;;;;7.90;3.47;;;;;;;2.79;72.00;99974.81;5117390;28;20493;-67
2022/02/03 18:29:50;;;;;;;18.60;8.80;;;;;;;2.38;72.95;99928.03;5116739;28;20263;-67
2022/02/03 18:35:24;;;;;;;16.88;8.85;;;;;;;2.65;74.18;99952.53;5116602;28;20048;-67
2022/02/03 18:51:34;;;;;;;15.30;8.32;;;;;;;2.77;74.11;99941.16;5116277;28;20047;-67
2022/02/03 18:54:14;;;;;;;14.15;7.93;;;;;;;2.78;73.83;99937.84;5116586;28;20374;-68
2022/02/03 18:56:51;;;;;;;15.80;7.78;;;;;;;2.86;74.05;99943.97;5116529;28;20031;-67
2022/02/03 18:59:38;;;;;;;13.70;7.50;;;;;;;2.92;73.72;99936.63;5116220;27;20055;-68
2022/02/03 19:21:14;;;;;;;28.10;13.00;;;;;;;2.75;74.31;99922.59;5115806;28;20035;-68
2022/02/03 20:04:20;;;;;;;33.55;14.20;;;;;;;2.57;75.61;99897.63;5114775;28;20138;-68
2022/02/03 20:07:06;;;;;;;27.33;14.07;;;;;;;2.62;75.63;99894.47;5114835;28;20092;-67
2022/02/03 20:09:56;;;;;;;25.63;13.10;;;;;;;2.66;74.88;99896.28;5114811;28;20051;-68
2022/02/03 20:12:26;;;;;;;34.05;14.88;;;;;;;2.64;75.01;99900.41;5114841;28;20040;-67
2022/02/03 20:14:55;;;;;;;30.10;14.48;;;;;;;2.59;74.82;99896.88;5115283;28;20127;-67
2022/02/03 20:17:27;;;;;;;35.88;15.75;;;;;;;2.65;75.38;99897.09;5114919;28;20378;-68
2022/02/03 20:19:56;;;;;;;32.28;15.27;;;;;;;2.55;75.04;99869.88;5113987;28;20040;-67
2022/02/03 20:22:31;;;;;;;28.13;14.50;;;;;;;2.70;74.91;99895.59;5113867;28;20043;-68
2022/02/03 20:25:01;;;;;;;30.98;14.40;;;;;;;2.69;75.15;99893.88;5114532;28;20052;-67
2022/02/03 20:27:32;;;;;;;29.58;13.73;;;;;;;2.62;74.79;99876.84;5112678;28;20093;-69
2022/02/03 20:30:02;;;;;;;27.10;12.90;;;;;;;2.68;75.24;99887.16;5106495;27;20044;-68
2022/02/03 20:32:31;;;;;;;;;;;;;;;2.75;75.32;99877.25;5102433;28;20046;-68
2022/02/03 20:35:00;;;;;;;21.95;11.32;;;;;;;2.73;74.92;99865.44;5114379;28;20349;-68
2022/02/03 20:37:30;;;;;;;21.45;11.05;;;;;;;2.89;74.55;99871.00;5114740;28;20044;-67
2022/02/03 20:39:59;;;;;;;25.63;11.02;;;;;;;2.88;73.88;99859.22;5114615;28;20035;-67
2022/02/03 20:42:28;;;;;;;23.70;11.43;;;;;;;2.84;74.45;99862.44;5114794;28;20459;-67
2022/02/03 20:44:59;;;;;;;21.13;10.68;;;;;;;2.78;74.16;99867.28;5114107;28;20043;-68